Aviation Digital Data Service (ADDS)

Output produced by TAFs form (0533 UTC 11 December 2017)
found at http://www.aviationweather.gov/adds/tafs/
 
METAR text: KHOU 110453Z 22003KT 10SM FEW250 07/03 A3036 RMK AO2 SLP287 T00720028
Conditions at: KHOU (HOUSTON/HOBBY , TX, US) observed 0453 UTC 11 December 2017
Temperature: 7.2°C (45°F)
Dewpoint: 2.8°C (37°F) [RH = 74%]
Pressure (altimeter): 30.36 inches Hg (1028.2 mb)
[Sea-level pressure: 1028.7 mb]
Winds: from the SW (220 degrees) at 3 MPH (3 knots; 1.6 m/s)
Visibility: 10 or more miles (16+ km)
Ceiling: at least 12,000 feet AGL
Clouds: few clouds at 25000 feet AGL
Weather: no significant weather observed at this time

Forecast for: KHOU (HOUSTON/HOBBY , TX, US)
Text: KHOU 110520Z 1106/1206 24007KT P6SM SCT250
Forecast period: 0600 UTC 11 December 2017 to 0600 UTC 12 December 2017
Forecast type: FROM: standard forecast or significant change
Winds: from the WSW (240 degrees) at 8 MPH (7 knots; 3.6 m/s)
Visibility: 6 or more miles (10+ km)
Clouds: scattered clouds at 25000 feet AGL
Weather: no significant weather forecast for this period